createdAt,value
2023-03-04T00:00:17.726Z,86
2023-03-04T00:01:46.163Z,86
2023-03-04T00:02:54.566Z,86
2023-03-04T00:04:01.595Z,86
2023-03-04T00:05:09.088Z,86
2023-03-04T00:06:16.221Z,86
2023-03-04T00:07:25.689Z,86
2023-03-04T00:08:32.989Z,86
2023-03-04T00:10:04.248Z,87
2023-03-04T00:11:51.839Z,86
2023-03-04T00:13:17.177Z,86
2023-03-04T00:14:24.521Z,86
2023-03-04T00:15:35.052Z,86
2023-03-04T00:16:42.866Z,86
2023-03-04T00:18:11.804Z,86
2023-03-04T00:19:18.925Z,86
2023-03-04T00:20:37.034Z,86
2023-03-04T00:21:57.662Z,86
2023-03-04T00:23:32.365Z,86
2023-03-04T00:24:40.605Z,86
2023-03-04T00:25:53.054Z,86
2023-03-04T00:27:00.802Z,86
2023-03-04T00:28:11.317Z,86
2023-03-04T00:29:46.890Z,86
2023-03-04T00:31:04.188Z,86
2023-03-04T00:32:12.152Z,85
2023-03-04T00:33:51.920Z,85
2023-03-04T00:35:25.701Z,85
2023-03-04T00:36:53.396Z,86
2023-03-04T00:38:00.443Z,85
2023-03-04T00:39:26.937Z,85
2023-03-04T00:41:15.399Z,85
2023-03-04T00:43:52.149Z,85
2023-03-04T00:45:12.560Z,85
2023-03-04T00:47:32.896Z,85
2023-03-04T00:48:57.749Z,85
2023-03-04T00:50:07.034Z,85
2023-03-04T00:51:27.233Z,85
2023-03-04T00:53:24.493Z,85
2023-03-04T00:54:33.919Z,85
2023-03-04T00:55:41.226Z,85
2023-03-04T00:57:36.922Z,85
2023-03-04T00:58:49.069Z,86
2023-03-04T01:00:06.612Z,86
2023-03-04T01:01:52.312Z,85
2023-03-04T01:03:48.083Z,85
2023-03-04T01:05:52.858Z,85
2023-03-04T01:07:34.245Z,86
2023-03-04T01:08:45.358Z,86
2023-03-04T01:09:55.578Z,86
2023-03-04T01:11:04.984Z,86
2023-03-04T01:13:30.204Z,86
2023-03-04T01:14:58.253Z,86
2023-03-04T01:16:05.828Z,87
2023-03-04T01:17:12.883Z,86
2023-03-04T01:18:22.621Z,86
2023-03-04T01:19:29.521Z,87
2023-03-04T01:21:03.976Z,87
2023-03-04T01:22:19.095Z,86
2023-03-04T01:23:39.141Z,87
2023-03-04T01:24:52.241Z,86
2023-03-04T01:26:30.340Z,86
2023-03-04T01:27:41.513Z,86
2023-03-04T01:28:49.935Z,86
2023-03-04T01:30:04.858Z,86
2023-03-04T01:31:28.279Z,86
2023-03-04T01:32:49.638Z,86
2023-03-04T01:33:59.020Z,86
2023-03-04T01:35:05.991Z,86
2023-03-04T01:36:31.837Z,86
2023-03-04T01:37:46.174Z,85
2023-03-04T01:40:00.055Z,85
2023-03-04T01:41:15.366Z,85
2023-03-04T01:43:34.534Z,86
2023-03-04T01:44:43.295Z,86
2023-03-04T01:46:13.221Z,86
2023-03-04T01:47:39.486Z,86
2023-03-04T01:48:50.081Z,86
2023-03-04T01:49:57.799Z,86
2023-03-04T01:51:07.195Z,85
2023-03-04T01:52:22.007Z,86
2023-03-04T01:53:34.390Z,86
2023-03-04T01:54:41.383Z,86
2023-03-04T01:56:09.279Z,86
2023-03-04T01:57:19.197Z,87
2023-03-04T01:58:33.598Z,86
2023-03-04T01:59:40.663Z,87
2023-03-04T02:00:59.687Z,87
2023-03-04T02:02:12.996Z,87
2023-03-04T02:03:29.201Z,87
2023-03-04T02:04:38.940Z,87
2023-03-04T02:05:46.193Z,87
2023-03-04T02:06:56.132Z,87
2023-03-04T02:08:03.115Z,87
2023-03-04T02:09:22.660Z,86
2023-03-04T02:10:42.803Z,86
2023-03-04T02:11:52.643Z,86
2023-03-04T02:13:09.984Z,86
2023-03-04T02:14:17.035Z,86
2023-03-04T02:15:38.603Z,86
2023-03-04T02:16:49.795Z,86
2023-03-04T02:17:56.778Z,86
2023-03-04T02:19:10.677Z,87
2023-03-04T02:20:23.614Z,86
2023-03-04T02:21:59.654Z,86
2023-03-04T02:23:06.643Z,86
2023-03-04T02:24:22.461Z,86
2023-03-04T02:25:54.753Z,86
2023-03-04T02:27:36.270Z,86
2023-03-04T02:28:48.827Z,85
2023-03-04T02:29:58.736Z,86
2023-03-04T02:31:05.767Z,86
2023-03-04T02:32:15.700Z,86
2023-03-04T02:33:23.748Z,86
2023-03-04T02:34:56.558Z,86
2023-03-04T02:36:30.889Z,86
2023-03-04T02:37:39.622Z,86
2023-03-04T02:38:53.674Z,85
2023-03-04T02:40:01.546Z,85
2023-03-04T02:41:09.130Z,85
2023-03-04T02:42:23.142Z,85
2023-03-04T02:43:35.134Z,85
2023-03-04T02:45:15.634Z,84
2023-03-04T02:46:30.516Z,84
2023-03-04T02:47:40.144Z,84
2023-03-04T02:48:47.858Z,84
2023-03-04T02:50:01.512Z,84
2023-03-04T02:51:11.614Z,84
2023-03-04T02:52:19.013Z,84
2023-03-04T02:53:26.174Z,84
2023-03-04T02:54:33.200Z,84
2023-03-04T02:55:50.042Z,84
2023-03-04T02:56:57.051Z,84
2023-03-04T02:58:06.726Z,84
2023-03-04T02:59:15.973Z,84
2023-03-04T03:00:24.508Z,84
2023-03-04T03:01:42.854Z,84
2023-03-04T03:02:50.912Z,84
2023-03-04T03:04:01.344Z,84
2023-03-04T03:05:20.863Z,84
2023-03-04T03:06:28.311Z,84
2023-03-04T03:07:35.901Z,84
2023-03-04T03:08:54.249Z,84
2023-03-04T03:10:01.551Z,84
2023-03-04T03:11:10.025Z,84
2023-03-04T03:12:30.848Z,84
2023-03-04T03:13:38.467Z,84
2023-03-04T03:14:45.577Z,85
2023-03-04T03:15:52.595Z,84
2023-03-04T03:17:00.257Z,85
2023-03-04T03:18:07.760Z,85
2023-03-04T03:19:22.104Z,85
2023-03-04T03:20:31.718Z,85
2023-03-04T03:21:39.639Z,85
2023-03-04T03:22:46.634Z,85
2023-03-04T03:23:58.809Z,84
2023-03-04T03:25:08.756Z,85
2023-03-04T03:26:15.700Z,84
2023-03-04T03:27:25.337Z,84
2023-03-04T03:28:34.112Z,84
2023-03-04T03:29:47.972Z,84
2023-03-04T03:30:58.505Z,84
2023-03-04T03:32:05.469Z,84
2023-03-04T03:33:13.536Z,84
2023-03-04T03:34:24.489Z,84
2023-03-04T03:35:37.123Z,84
2023-03-04T03:36:46.228Z,84
2023-03-04T03:37:53.163Z,84
2023-03-04T03:39:01.170Z,84
2023-03-04T03:40:09.105Z,84
2023-03-04T03:41:17.269Z,84
2023-03-04T03:42:24.868Z,84
2023-03-04T03:43:33.790Z,84
2023-03-04T03:44:40.736Z,84
2023-03-04T03:45:50.437Z,84
2023-03-04T03:46:57.444Z,84
2023-03-04T03:48:04.398Z,84
2023-03-04T03:49:11.387Z,84
2023-03-04T03:50:18.999Z,84
2023-03-04T03:51:28.759Z,84
2023-03-04T03:52:37.958Z,84
2023-03-04T03:53:45.013Z,84
2023-03-04T03:54:52.809Z,84
2023-03-04T03:55:59.807Z,84
2023-03-04T03:57:06.902Z,84
2023-03-04T03:58:18.282Z,84
2023-03-04T03:59:25.439Z,84
2023-03-04T04:00:37.488Z,84
2023-03-04T04:01:48.092Z,84
2023-03-04T04:03:03.923Z,84
2023-03-04T04:04:10.838Z,84
2023-03-04T04:05:18.562Z,84
2023-03-04T04:06:25.501Z,84
2023-03-04T04:07:36.172Z,84
2023-03-04T04:08:43.149Z,84
2023-03-04T04:09:53.004Z,84
2023-03-04T04:11:06.748Z,84
2023-03-04T04:12:16.406Z,84
2023-03-04T04:13:31.449Z,84
2023-03-04T04:14:38.430Z,84
2023-03-04T04:15:46.250Z,84
2023-03-04T04:16:56.361Z,84
2023-03-04T04:18:25.338Z,84
2023-03-04T04:19:36.633Z,84
2023-03-04T04:20:43.569Z,84
2023-03-04T04:21:50.607Z,84
2023-03-04T04:22:57.676Z,84
2023-03-04T04:24:07.609Z,84
2023-03-04T04:25:24.294Z,84
2023-03-04T04:26:36.108Z,84
2023-03-04T04:27:46.010Z,84
2023-03-04T04:29:07.236Z,84
2023-03-04T04:30:15.299Z,84
2023-03-04T04:31:33.688Z,84
2023-03-04T04:32:41.048Z,84
2023-03-04T04:33:54.301Z,84
2023-03-04T04:35:10.827Z,84
2023-03-04T04:36:24.645Z,84
2023-03-04T04:37:31.613Z,84
2023-03-04T04:38:46.720Z,84
2023-03-04T04:39:53.643Z,84
2023-03-04T04:41:00.635Z,84
2023-03-04T04:42:08.732Z,84
2023-03-04T04:43:16.707Z,84
2023-03-04T04:44:35.672Z,84
2023-03-04T04:45:42.634Z,84
2023-03-04T04:46:49.982Z,84
2023-03-04T04:47:58.370Z,84
2023-03-04T04:49:06.405Z,84
2023-03-04T04:50:24.947Z,84
2023-03-04T04:51:35.397Z,84
2023-03-04T04:52:47.547Z,84
2023-03-04T04:53:58.276Z,84
2023-03-04T04:55:05.266Z,85
2023-03-04T04:56:12.823Z,84
2023-03-04T04:57:20.127Z,84
2023-03-04T04:58:27.223Z,84
2023-03-04T04:59:34.642Z,84
2023-03-04T05:00:44.224Z,84
2023-03-04T05:01:52.729Z,85
2023-03-04T05:03:04.701Z,85
2023-03-04T05:04:14.354Z,85
2023-03-04T05:05:22.229Z,85
2023-03-04T05:06:31.877Z,84
2023-03-04T05:07:40.979Z,84
2023-03-04T05:08:47.864Z,85
2023-03-04T05:09:55.514Z,85
2023-03-04T05:11:03.348Z,86
2023-03-04T05:12:14.680Z,86
2023-03-04T05:13:27.274Z,86
2023-03-04T05:14:34.784Z,86
2023-03-04T05:16:53.408Z,86
2023-03-04T05:18:00.738Z,86
2023-03-04T05:19:07.784Z,86
2023-03-04T05:20:16.485Z,86
2023-03-04T05:21:24.909Z,86
2023-03-04T05:22:32.737Z,86
2023-03-04T05:23:42.077Z,86
2023-03-04T05:24:50.925Z,86
2023-03-04T05:25:57.942Z,85
2023-03-04T05:27:13.604Z,85
2023-03-04T05:28:21.438Z,86
2023-03-04T05:29:28.478Z,85
2023-03-04T05:30:37.535Z,85
2023-03-04T05:31:47.617Z,85
2023-03-04T05:32:54.703Z,85
2023-03-04T05:34:02.171Z,85
2023-03-04T05:35:09.314Z,85
2023-03-04T05:36:17.364Z,85
2023-03-04T05:37:25.307Z,84
2023-03-04T05:38:46.764Z,84
2023-03-04T05:40:00.882Z,84
2023-03-04T05:41:08.242Z,85
2023-03-04T05:42:15.614Z,84
2023-03-04T05:43:22.689Z,84
2023-03-04T05:44:29.710Z,84
2023-03-04T05:45:46.979Z,84
2023-03-04T05:46:57.146Z,84
2023-03-04T05:48:04.456Z,84
2023-03-04T05:49:19.625Z,84
2023-03-04T05:50:27.140Z,84
2023-03-04T05:51:44.882Z,84
2023-03-04T05:52:53.862Z,84
2023-03-04T05:54:04.534Z,84
2023-03-04T05:55:23.848Z,84
2023-03-04T05:56:31.391Z,84
2023-03-04T05:57:38.476Z,84
2023-03-04T05:58:48.656Z,84
2023-03-04T06:02:16.870Z,84
2023-03-04T06:03:25.913Z,84
2023-03-04T06:04:35.967Z,84
2023-03-04T06:05:42.948Z,84
2023-03-04T06:06:50.843Z,85
2023-03-04T06:07:57.800Z,84
2023-03-04T06:09:09.316Z,84
2023-03-04T06:10:16.476Z,84
2023-03-04T06:11:26.163Z,84
2023-03-04T06:12:39.172Z,84
2023-03-04T06:13:46.138Z,84
2023-03-04T06:14:53.103Z,84
2023-03-04T06:16:21.901Z,84
2023-03-04T06:17:29.519Z,84
2023-03-04T06:18:39.180Z,84
2023-03-04T06:20:09.521Z,85
2023-03-04T06:21:16.559Z,85
2023-03-04T06:22:40.132Z,85
2023-03-04T06:24:10.865Z,85
2023-03-04T06:25:17.912Z,85
2023-03-04T06:26:35.103Z,85
2023-03-04T06:27:50.773Z,86
2023-03-04T06:28:57.593Z,86
2023-03-04T06:30:10.849Z,86
2023-03-04T06:31:17.980Z,86
2023-03-04T06:32:29.041Z,86
2023-03-04T06:33:49.672Z,85
2023-03-04T06:35:08.259Z,85
2023-03-04T06:36:19.470Z,85
2023-03-04T06:39:02.491Z,85
2023-03-04T06:40:09.838Z,85
2023-03-04T06:41:16.875Z,85
2023-03-04T06:42:44.202Z,85
2023-03-04T06:43:51.232Z,86
2023-03-04T06:44:59.467Z,85
2023-03-04T06:46:06.536Z,85
2023-03-04T06:47:28.908Z,85
2023-03-04T06:48:36.454Z,85
2023-03-04T06:49:46.514Z,85
2023-03-04T06:50:53.659Z,85
2023-03-04T06:52:00.536Z,85
2023-03-04T06:53:32.033Z,85
2023-03-04T06:54:42.142Z,85
2023-03-04T06:55:49.854Z,85
2023-03-04T06:57:26.023Z,85
2023-03-04T06:58:32.987Z,85
2023-03-04T06:59:55.042Z,85
2023-03-04T07:01:05.584Z,85
2023-03-04T07:02:58.605Z,84
2023-03-04T07:04:08.662Z,84
2023-03-04T07:05:29.404Z,85
2023-03-04T07:06:40.206Z,85
2023-03-04T07:07:47.212Z,85
2023-03-04T07:08:57.710Z,85
2023-03-04T07:10:16.989Z,86
2023-03-04T07:11:30.465Z,85
2023-03-04T07:12:48.093Z,85
2023-03-04T07:13:55.372Z,85
2023-03-04T07:15:04.134Z,85
2023-03-04T07:16:18.077Z,84
2023-03-04T07:17:26.556Z,84
2023-03-04T07:18:33.939Z,84
2023-03-04T07:19:43.401Z,84
2023-03-04T07:20:50.720Z,85
2023-03-04T07:21:58.681Z,84
2023-03-04T07:23:10.542Z,85
2023-03-04T07:24:17.641Z,85
2023-03-04T07:25:37.401Z,85
2023-03-04T07:26:59.765Z,85
2023-03-04T07:28:06.819Z,85
2023-03-04T07:29:14.881Z,85
2023-03-04T07:30:24.684Z,85
2023-03-04T07:31:37.425Z,85
2023-03-04T07:32:45.238Z,85
2023-03-04T07:34:31.321Z,85
2023-03-04T07:35:45.646Z,85
2023-03-04T07:36:52.615Z,85
2023-03-04T07:38:00.444Z,85
2023-03-04T07:39:07.423Z,85
2023-03-04T07:40:15.720Z,85
2023-03-04T07:41:27.454Z,85
2023-03-04T07:42:35.218Z,85
2023-03-04T07:43:42.291Z,85
2023-03-04T07:44:49.358Z,85
2023-03-04T07:45:56.448Z,85
2023-03-04T07:47:06.132Z,85
2023-03-04T07:48:13.376Z,84
2023-03-04T07:49:21.814Z,84
2023-03-04T07:50:31.735Z,85
2023-03-04T07:51:38.806Z,85
2023-03-04T07:52:46.096Z,85
2023-03-04T07:53:53.090Z,84
2023-03-04T07:55:04.142Z,84
2023-03-04T07:56:12.671Z,84
2023-03-04T07:57:19.756Z,84
2023-03-04T07:58:30.270Z,85
2023-03-04T07:59:37.270Z,84
2023-03-04T08:00:44.443Z,85
2023-03-04T08:01:52.957Z,85
2023-03-04T08:03:00.594Z,85
2023-03-04T08:04:10.357Z,85
2023-03-04T08:05:17.523Z,85
2023-03-04T08:06:24.851Z,85
2023-03-04T08:07:32.091Z,85
2023-03-04T08:08:39.141Z,84
2023-03-04T08:09:46.140Z,85
2023-03-04T08:10:53.962Z,84
2023-03-04T08:12:01.217Z,84
2023-03-04T08:13:08.209Z,85
2023-03-04T08:14:15.419Z,85
2023-03-04T08:15:23.076Z,85
2023-03-04T08:16:32.917Z,85
2023-03-04T08:17:40.422Z,84
2023-03-04T08:18:50.067Z,84
2023-03-04T08:19:57.149Z,84
2023-03-04T08:21:07.197Z,84
2023-03-04T08:22:14.245Z,84
2023-03-04T08:23:24.211Z,84
2023-03-04T08:24:31.665Z,84
2023-03-04T08:25:43.079Z,84
2023-03-04T08:26:51.128Z,84
2023-03-04T08:27:58.421Z,84
2023-03-04T08:29:06.044Z,84
2023-03-04T08:30:16.114Z,84
2023-03-04T08:31:27.073Z,83
2023-03-04T08:32:38.710Z,83
2023-03-04T08:33:45.632Z,83
2023-03-04T08:34:55.284Z,83
2023-03-04T08:36:03.676Z,83
2023-03-04T08:37:12.137Z,83
2023-03-04T08:38:20.254Z,83
2023-03-04T08:39:31.088Z,83
2023-03-04T08:40:40.442Z,83
2023-03-04T08:41:47.724Z,82
2023-03-04T08:42:54.893Z,83
2023-03-04T08:44:01.884Z,83
2023-03-04T08:45:09.500Z,83
2023-03-04T08:46:16.581Z,83
2023-03-04T08:47:24.641Z,83
2023-03-04T08:48:32.259Z,83
2023-03-04T08:49:41.253Z,83
2023-03-04T08:50:49.269Z,82
2023-03-04T08:51:56.306Z,82
2023-03-04T08:53:03.272Z,82
2023-03-04T08:54:10.553Z,82
2023-03-04T08:55:17.618Z,82
2023-03-04T08:56:27.479Z,82
2023-03-04T08:57:34.980Z,82
2023-03-04T08:58:42.640Z,82
2023-03-04T08:59:49.810Z,82
2023-03-04T09:01:00.660Z,82
2023-03-04T09:02:07.774Z,82
2023-03-04T09:03:17.351Z,82
2023-03-04T09:04:24.309Z,82
2023-03-04T09:05:34.239Z,82
2023-03-04T09:06:44.145Z,82
2023-03-04T09:07:52.117Z,82
2023-03-04T09:09:02.532Z,82
2023-03-04T09:10:10.648Z,82
2023-03-04T09:11:17.684Z,82
2023-03-04T09:12:24.706Z,82
2023-03-04T09:13:32.412Z,82
2023-03-04T09:14:43.145Z,82
2023-03-04T09:15:51.546Z,82
2023-03-04T09:16:59.490Z,82
2023-03-04T09:18:06.448Z,82
2023-03-04T09:19:13.532Z,82
2023-03-04T09:20:23.289Z,82
2023-03-04T09:21:30.220Z,82
2023-03-04T09:22:37.569Z,82
2023-03-04T09:23:44.959Z,82
2023-03-04T09:24:52.151Z,82
2023-03-04T09:25:59.319Z,82
2023-03-04T09:27:09.294Z,82
2023-03-04T09:28:16.394Z,82
2023-03-04T09:29:23.504Z,82
2023-03-04T09:30:33.379Z,82
2023-03-04T09:31:41.954Z,82
2023-03-04T09:32:50.325Z,82
2023-03-04T09:33:58.189Z,83
2023-03-04T09:35:06.027Z,83
2023-03-04T09:36:13.082Z,83
2023-03-04T09:37:20.809Z,82
2023-03-04T09:38:30.342Z,82
2023-03-04T09:39:37.970Z,82
2023-03-04T09:40:48.098Z,83
2023-03-04T09:41:57.634Z,83
2023-03-04T09:43:07.324Z,83
2023-03-04T09:44:25.477Z,84
2023-03-04T09:45:40.786Z,83
2023-03-04T09:46:47.967Z,83
2023-03-04T09:47:55.002Z,84
2023-03-04T09:49:02.111Z,84
2023-03-04T09:50:09.926Z,84
2023-03-04T09:51:19.534Z,84
2023-03-04T09:52:33.057Z,84
2023-03-04T09:53:49.122Z,84
2023-03-04T09:55:06.460Z,85
2023-03-04T09:56:16.277Z,84
2023-03-04T09:57:26.148Z,85
2023-03-04T09:58:33.833Z,84
2023-03-04T09:59:51.865Z,84
2023-03-04T10:01:05.397Z,84
2023-03-04T10:02:18.888Z,84
2023-03-04T10:03:30.998Z,85
2023-03-04T10:04:48.217Z,84
2023-03-04T10:05:57.371Z,84
2023-03-04T10:07:06.210Z,84
2023-03-04T10:08:16.663Z,84
2023-03-04T10:09:33.946Z,84
2023-03-04T10:10:46.223Z,83
2023-03-04T10:11:53.203Z,83
2023-03-04T10:13:09.973Z,83
2023-03-04T10:14:15.677Z,83
2023-03-04T10:15:26.491Z,83
2023-03-04T10:16:41.440Z,83
2023-03-04T10:17:56.157Z,83
2023-03-04T10:19:14.077Z,82
2023-03-04T10:20:29.989Z,82
2023-03-04T10:21:47.530Z,82
2023-03-04T10:22:58.281Z,82
2023-03-04T10:24:14.187Z,82
2023-03-04T10:25:27.511Z,81
2023-03-04T10:26:35.186Z,82
2023-03-04T10:27:42.501Z,81
2023-03-04T10:28:54.929Z,81
2023-03-04T10:30:06.622Z,82
2023-03-04T10:31:16.830Z,81
2023-03-04T10:32:26.772Z,81
2023-03-04T10:33:34.154Z,81
2023-03-04T10:34:41.226Z,81
2023-03-04T10:35:52.916Z,81
2023-03-04T10:37:06.033Z,80
2023-03-04T10:38:14.680Z,80
2023-03-04T10:39:23.271Z,80
2023-03-04T10:40:36.364Z,81
2023-03-04T10:41:45.731Z,80
2023-03-04T10:43:04.430Z,80
2023-03-04T10:44:16.540Z,80
2023-03-04T10:45:23.859Z,81
2023-03-04T10:46:30.973Z,81
2023-03-04T10:47:37.960Z,80
2023-03-04T10:48:47.998Z,80
2023-03-04T10:49:55.007Z,80
2023-03-04T10:51:02.308Z,80
2023-03-04T10:52:15.291Z,80
2023-03-04T10:53:32.735Z,80
2023-03-04T10:54:46.304Z,80
2023-03-04T10:55:54.334Z,80
2023-03-04T10:57:04.937Z,80
2023-03-04T10:58:19.939Z,80
2023-03-04T10:59:30.173Z,81
2023-03-04T11:00:37.883Z,80
2023-03-04T11:01:45.164Z,81
2023-03-04T11:02:52.275Z,80
2023-03-04T11:04:02.942Z,81
2023-03-04T11:05:11.087Z,81
2023-03-04T11:06:18.088Z,81
2023-03-04T11:07:26.459Z,80
2023-03-04T11:08:33.822Z,81
2023-03-04T11:09:42.938Z,80
2023-03-04T11:10:52.364Z,80
2023-03-04T11:12:00.244Z,80
2023-03-04T11:13:08.261Z,80
2023-03-04T11:14:15.765Z,80
2023-03-04T11:15:22.913Z,80
2023-03-04T11:16:30.880Z,80
2023-03-04T11:17:38.082Z,80
2023-03-04T11:18:47.958Z,79
2023-03-04T11:19:56.127Z,80
2023-03-04T11:21:08.399Z,80
2023-03-04T11:22:20.566Z,80
2023-03-04T11:23:27.669Z,79
2023-03-04T11:24:44.785Z,80
2023-03-04T11:25:59.726Z,80
2023-03-04T11:27:07.118Z,79
2023-03-04T11:28:19.497Z,79
2023-03-04T11:29:27.350Z,79
2023-03-04T11:30:45.322Z,79
2023-03-04T11:32:00.528Z,78
2023-03-04T11:33:12.583Z,78
2023-03-04T11:34:27.514Z,78
2023-03-04T11:35:43.163Z,78
2023-03-04T11:37:01.048Z,78
2023-03-04T11:38:10.987Z,79
2023-03-04T11:39:28.158Z,78
2023-03-04T11:40:41.283Z,78
2023-03-04T11:41:54.568Z,77
2023-03-04T11:43:10.544Z,78
2023-03-04T11:44:21.792Z,77
2023-03-04T11:45:33.877Z,77
2023-03-04T11:47:00.982Z,77
2023-03-04T11:48:37.171Z,77
2023-03-04T11:49:55.610Z,76
2023-03-04T11:51:13.051Z,76
2023-03-04T11:52:35.955Z,76
2023-03-04T11:53:54.266Z,76
2023-03-04T11:55:09.570Z,76
2023-03-04T11:56:22.658Z,75
2023-03-04T11:57:38.583Z,75
2023-03-04T11:58:48.532Z,75
2023-03-04T12:00:05.940Z,75
2023-03-04T12:01:24.552Z,75
2023-03-04T12:02:35.567Z,75
2023-03-04T12:03:48.077Z,75
2023-03-04T12:05:05.129Z,74
2023-03-04T12:06:21.930Z,74
2023-03-04T12:07:36.959Z,74
2023-03-04T12:08:52.598Z,74
2023-03-04T12:10:06.132Z,74
2023-03-04T12:11:20.959Z,74
2023-03-04T12:12:35.583Z,73
2023-03-04T12:13:48.191Z,73
2023-03-04T12:15:14.560Z,73
2023-03-04T12:16:41.618Z,74
2023-03-04T12:17:54.616Z,73
2023-03-04T12:19:17.266Z,73
2023-03-04T12:20:37.538Z,73
2023-03-04T12:21:46.533Z,73
2023-03-04T12:23:03.865Z,73
2023-03-04T12:24:15.969Z,73
2023-03-04T12:25:29.747Z,73
2023-03-04T12:26:47.107Z,73
2023-03-04T12:28:05.908Z,73
2023-03-04T12:29:21.833Z,73
2023-03-04T12:30:42.529Z,73
2023-03-04T12:32:03.608Z,72
2023-03-04T12:33:16.851Z,72
2023-03-04T12:34:23.378Z,72
2023-03-04T12:35:37.503Z,72
2023-03-04T12:36:49.786Z,72
2023-03-04T12:38:07.026Z,72
2023-03-04T12:39:19.525Z,72
2023-03-04T12:40:36.339Z,72
2023-03-04T12:41:53.774Z,72
2023-03-04T12:43:11.047Z,72
2023-03-04T12:44:26.133Z,72
2023-03-04T12:45:34.034Z,72
2023-03-04T12:46:49.862Z,72
2023-03-04T12:48:02.194Z,71
2023-03-04T12:49:22.688Z,71
2023-03-04T12:50:34.924Z,71
2023-03-04T12:51:48.372Z,71
2023-03-04T12:53:06.410Z,71
2023-03-04T12:54:21.635Z,71
2023-03-04T12:55:29.058Z,70
2023-03-04T12:56:41.222Z,70
2023-03-04T12:57:52.352Z,69
2023-03-04T12:58:59.635Z,69
2023-03-04T13:00:07.290Z,69
2023-03-04T13:01:24.356Z,69
2023-03-04T13:02:40.252Z,70
2023-03-04T13:03:56.193Z,70
2023-03-04T13:05:13.623Z,70
2023-03-04T13:06:30.334Z,70
2023-03-04T13:07:47.662Z,70
2023-03-04T13:09:07.654Z,70
2023-03-04T13:10:26.703Z,70
2023-03-04T13:11:33.694Z,69
2023-03-04T13:12:43.898Z,69
2023-03-04T13:13:52.555Z,70
2023-03-04T13:15:04.438Z,70
2023-03-04T13:16:13.153Z,70
2023-03-04T13:17:25.682Z,70
2023-03-04T13:18:41.241Z,70
2023-03-04T13:19:53.054Z,70
2023-03-04T13:21:00.574Z,70
2023-03-04T13:22:11.301Z,69
2023-03-04T13:23:28.758Z,70
2023-03-04T13:24:36.151Z,69
2023-03-04T13:25:50.579Z,69
2023-03-04T13:27:01.241Z,69
2023-03-04T13:28:19.715Z,69
2023-03-04T13:29:32.127Z,69
2023-03-04T13:30:39.275Z,69
2023-03-04T13:31:46.342Z,69
2023-03-04T13:33:04.453Z,69
2023-03-04T13:34:17.554Z,69
2023-03-04T13:35:37.829Z,69
2023-03-04T13:36:50.629Z,69
2023-03-04T13:37:58.380Z,69
2023-03-04T13:39:06.081Z,69
2023-03-04T13:40:21.604Z,69
2023-03-04T13:41:39.421Z,69
2023-03-04T13:42:51.653Z,69
2023-03-04T13:44:00.552Z,69
2023-03-04T13:45:07.694Z,69
2023-03-04T13:46:24.834Z,69
2023-03-04T13:47:34.626Z,68
2023-03-04T13:48:47.698Z,68
2023-03-04T13:49:55.031Z,68
2023-03-04T13:51:23.721Z,69
2023-03-04T13:52:27.035Z,69
2023-03-04T13:53:49.021Z,69
2023-03-04T13:55:01.952Z,69
2023-03-04T13:56:19.173Z,69
2023-03-04T13:57:32.056Z,69
2023-03-04T13:58:39.045Z,69
2023-03-04T13:59:46.071Z,69
2023-03-04T14:00:53.422Z,69
2023-03-04T14:02:01.869Z,69
2023-03-04T14:03:16.757Z,69
2023-03-04T14:04:24.533Z,69
2023-03-04T14:05:40.130Z,70
2023-03-04T14:06:50.225Z,70
2023-03-04T14:07:57.752Z,70
2023-03-04T14:09:22.153Z,70
2023-03-04T14:10:34.697Z,71
2023-03-04T14:12:01.927Z,70
2023-03-04T14:13:09.517Z,70
2023-03-04T14:14:16.539Z,70
2023-03-04T14:15:26.099Z,70
2023-03-04T14:16:33.445Z,70
2023-03-04T14:17:47.338Z,71
2023-03-04T14:19:08.930Z,70
2023-03-04T14:20:24.517Z,70
2023-03-04T14:21:39.355Z,70
2023-03-04T14:22:49.559Z,70
2023-03-04T14:23:56.827Z,70
2023-03-04T14:25:03.832Z,71
2023-03-04T14:26:10.967Z,71
2023-03-04T14:27:18.198Z,71
2023-03-04T14:28:25.235Z,71
2023-03-04T14:29:32.777Z,70
2023-03-04T14:30:43.090Z,71
2023-03-04T14:31:46.946Z,70
2023-03-04T14:32:54.055Z,71
2023-03-04T14:34:02.949Z,71
2023-03-04T14:35:11.493Z,71
2023-03-04T14:36:23.259Z,70
2023-03-04T14:37:30.294Z,71
2023-03-04T14:38:37.309Z,70
2023-03-04T14:39:44.291Z,71
2023-03-04T14:40:53.123Z,70
2023-03-04T14:42:00.329Z,71
2023-03-04T14:43:07.980Z,71
2023-03-04T14:44:14.947Z,71
2023-03-04T14:45:31.947Z,71
2023-03-04T14:46:39.928Z,71
2023-03-04T14:47:46.969Z,71
2023-03-04T14:48:53.837Z,71
2023-03-04T14:50:00.838Z,71
2023-03-04T14:51:10.646Z,71
2023-03-04T14:52:27.633Z,71
2023-03-04T14:53:40.072Z,71
2023-03-04T14:54:47.571Z,71
2023-03-04T14:55:58.049Z,72
2023-03-04T14:57:05.285Z,71
2023-03-04T14:58:18.094Z,71
2023-03-04T14:59:25.097Z,71
2023-03-04T15:00:32.932Z,72
2023-03-04T15:01:40.038Z,71
2023-03-04T15:02:47.963Z,71
2023-03-04T15:03:55.829Z,71
2023-03-04T15:05:14.350Z,71
2023-03-04T15:06:22.843Z,71
2023-03-04T15:07:31.520Z,71
2023-03-04T15:08:42.849Z,71
2023-03-04T15:09:53.019Z,71
2023-03-04T15:11:00.713Z,71
2023-03-04T15:12:08.035Z,71
2023-03-04T15:13:15.242Z,71
2023-03-04T15:14:25.533Z,71
2023-03-04T15:15:43.806Z,70
2023-03-04T15:16:51.119Z,71
2023-03-04T15:17:58.069Z,71
2023-03-04T15:19:10.722Z,71
2023-03-04T15:20:27.860Z,71
2023-03-04T15:21:34.962Z,71
2023-03-04T15:22:41.891Z,71
2023-03-04T15:23:52.212Z,71
2023-03-04T15:25:00.081Z,71
2023-03-04T15:26:08.089Z,71
2023-03-04T15:27:16.013Z,71
2023-03-04T15:28:23.393Z,71
2023-03-04T15:29:30.556Z,71
2023-03-04T15:30:37.671Z,71
2023-03-04T15:31:44.646Z,71
2023-03-04T15:32:52.558Z,71
2023-03-04T15:33:59.636Z,71
2023-03-04T15:35:06.669Z,70
2023-03-04T15:36:19.458Z,70
2023-03-04T15:37:30.352Z,71
2023-03-04T15:38:38.909Z,70
2023-03-04T15:39:48.567Z,71
2023-03-04T15:40:55.767Z,71
2023-03-04T15:42:03.003Z,71
2023-03-04T15:43:10.265Z,71
2023-03-04T15:44:17.277Z,71
2023-03-04T15:45:27.249Z,71
2023-03-04T15:46:35.118Z,71
2023-03-04T15:47:42.188Z,71
2023-03-04T15:48:50.109Z,71
2023-03-04T15:49:57.970Z,71
2023-03-04T15:51:06.747Z,71
2023-03-04T15:52:19.641Z,71
2023-03-04T15:53:28.326Z,71
2023-03-04T15:54:35.435Z,71
2023-03-04T15:55:42.507Z,71
2023-03-04T15:56:47.374Z,71
2023-03-04T15:58:02.194Z,71
2023-03-04T15:59:09.362Z,71
2023-03-04T16:00:16.597Z,71
2023-03-04T16:01:26.672Z,71
2023-03-04T16:02:34.042Z,71
2023-03-04T16:03:42.559Z,71
2023-03-04T16:04:50.124Z,71
2023-03-04T16:05:57.386Z,71
2023-03-04T16:07:04.803Z,71
2023-03-04T16:08:12.478Z,71
2023-03-04T16:09:20.531Z,71
2023-03-04T16:10:28.046Z,71
2023-03-04T16:11:35.045Z,71
2023-03-04T16:12:42.899Z,71
2023-03-04T16:13:53.178Z,71
2023-03-04T16:15:00.213Z,71
2023-03-04T16:16:08.715Z,71
2023-03-04T16:17:15.887Z,71
2023-03-04T16:18:23.463Z,71
2023-03-04T16:19:30.825Z,71
2023-03-04T16:20:39.029Z,72
2023-03-04T16:21:46.141Z,71
2023-03-04T16:22:53.351Z,72
2023-03-04T16:24:00.374Z,72
2023-03-04T16:25:07.774Z,72
2023-03-04T16:26:16.386Z,72
2023-03-04T16:27:30.453Z,71
2023-03-04T16:28:39.118Z,72
2023-03-04T16:29:46.381Z,72
2023-03-04T16:30:53.585Z,71
2023-03-04T16:32:01.509Z,71
2023-03-04T16:33:09.759Z,72
2023-03-04T16:34:16.842Z,72
2023-03-04T16:35:24.909Z,72
2023-03-04T16:36:31.967Z,72
2023-03-04T16:37:41.689Z,72
2023-03-04T16:38:48.802Z,72
2023-03-04T16:39:58.418Z,72
2023-03-04T16:41:05.422Z,72
2023-03-04T16:42:13.681Z,72
2023-03-04T16:43:20.853Z,73
2023-03-04T16:44:31.994Z,73
2023-03-04T16:45:42.442Z,73
2023-03-04T16:46:53.140Z,73
2023-03-04T16:48:00.505Z,73
2023-03-04T16:49:07.760Z,73
2023-03-04T16:50:14.818Z,73
2023-03-04T16:51:24.603Z,73
2023-03-04T16:52:35.845Z,73
2023-03-04T16:53:43.350Z,73
2023-03-04T16:54:53.093Z,73
2023-03-04T16:56:00.130Z,73
2023-03-04T16:57:15.868Z,74
2023-03-04T16:58:23.792Z,73
2023-03-04T16:59:34.392Z,73
2023-03-04T17:00:42.588Z,73
2023-03-04T17:01:49.961Z,74
2023-03-04T17:02:57.878Z,74
2023-03-04T17:04:04.808Z,74
2023-03-04T17:05:11.791Z,74
2023-03-04T17:06:20.524Z,74
2023-03-04T17:07:27.900Z,74
2023-03-04T17:08:35.820Z,74
2023-03-04T17:09:46.097Z,74
2023-03-04T17:10:53.075Z,74
2023-03-04T17:12:00.612Z,74
2023-03-04T17:13:10.841Z,74
2023-03-04T17:14:19.456Z,74